Time;durP1;ratioP1;P1;durP2;ratioP2;P2;SDS_P1;SDS_P2;PMS_P1;PMS_P2;Temp;Humidity;BMP_temperature;BMP_pressure;BME280_temperature;BME280_humidity;BME280_pressure;Samples;Min_cycle;Max_cycle;Signal;HPM_P1;HPM_P2
2023/05/26 00:01:31;;;;;;;;;;;;;;;;;;5040734;28;19921;-84
2023/05/26 00:04:18;;;;;;;;;;;;;;;;;;5051087;28;19955;-83
2023/05/26 00:07:04;;;;;;;;;;;;;;;;;;5054206;28;19958;-82
2023/05/26 00:09:51;;;;;;;;;;;;;;;;;;5061936;28;19924;-82
2023/05/26 00:12:37;;;;;;;;;;;;;;;;;;5062071;28;19917;-82
2023/05/26 00:15:24;;;;;;;;;;;;;;;;;;5051615;28;20554;-81
2023/05/26 00:18:11;;;;;;;;;;;;;;;;;;5048344;28;20465;-81
2023/05/26 00:20:57;;;;;;;;;;;;;;;;;;5051746;28;19920;-82
2023/05/26 00:23:44;;;;;;;;;;;;;;;;;;5059031;28;19913;-82
2023/05/26 00:26:30;;;;;;;;;;;;;;;;;;5051347;28;19927;-82
2023/05/26 00:29:17;;;;;;;;;;;;;;;;;;5050928;28;20335;-81
2023/05/26 00:32:04;;;;;;;;;;;;;;;;;;5035676;28;19924;-82
2023/05/26 00:34:50;;;;;;;;;;;;;;;;;;5033383;28;19928;-83
2023/05/26 00:37:37;;;;;;;;;;;;;;;;;;5034529;28;19924;-82
2023/05/26 00:40:23;;;;;;;;;;;;;;;;;;5035768;28;19921;-83
2023/05/26 00:43:10;;;;;;;;;;;;;;;;;;5041040;28;19920;-81
2023/05/26 00:45:56;;;;;;;;;;;;;;;;;;5054317;28;19913;-81
2023/05/26 00:48:43;;;;;;;;;;;;;;;;;;5051470;28;19913;-82
2023/05/26 00:51:29;;;;;;;;;;;;;;;;;;5053272;28;20476;-82
2023/05/26 00:54:23;;;;;;;;;;;;;;;;;;5052376;28;19920;-82
2023/05/26 00:57:10;;;;;;;;;;;;;;;;;;5055684;28;19921;-83
2023/05/26 00:59:56;;;;;;;;;;;;;;;;;;5063077;28;20379;-82
2023/05/26 01:02:44;;;;;;;;;;;;;;;;;;5066095;28;19937;-84
2023/05/26 01:05:31;;;;;;;;;;;;;;;;;;5040374;28;20368;-84
2023/05/26 01:08:17;;;;;;;;;;;;;;;;;;5044812;28;19917;-83
2023/05/26 01:11:04;;;;;;;;;;;;;;;;;;5039856;28;19925;-85
2023/05/26 01:13:50;;;;;;;;;;;;;;;;;;5044718;28;20022;-83
2023/05/26 01:16:39;;;;;;;;;;;;;;;;;;5053252;28;19931;-83
2023/05/26 01:19:25;;;;;;;;;;;;;;;;;;5060286;28;19935;-83
2023/05/26 01:22:12;;;;;;;;;;;;;;;;;;5063620;28;19927;-83
2023/05/26 01:24:58;;;;;;;;;;;;;;;;;;5039236;28;19927;-83
2023/05/26 01:27:45;;;;;;;;;;;;;;;;;;5048497;28;19916;-83
2023/05/26 01:30:31;;;;;;;;;;;;;;;;;;5048743;28;19920;-83
2023/05/26 01:33:18;;;;;;;;;;;;;;;;;;5047261;28;19924;-83
2023/05/26 01:36:04;;;;;;;;;;;;;;;;;;5036724;28;20013;-81
2023/05/26 01:38:51;;;;;;;;;;;;;;;;;;5059517;28;19924;-81
2023/05/26 01:41:37;;;;;;;;;;;;;;;;;;5050199;28;19917;-82
2023/05/26 01:44:24;;;;;;;;;;;;;;;;;;5060842;28;19923;-82
2023/05/26 01:47:11;;;;;;;;;;;;;;;;;;5057027;28;19917;-85
2023/05/26 01:49:57;;;;;;;;;;;;;;;;;;5046455;28;19923;-82
2023/05/26 01:52:44;;;;;;;;;;;;;;;;;;5050562;28;19920;-83
2023/05/26 01:55:30;;;;;;;;;;;;;;;;;;5035027;28;19921;-83
2023/05/26 01:58:17;;;;;;;;;;;;;;;;;;5053688;28;19920;-83
2023/05/26 02:01:03;;;;;;;;;;;;;;;;;;5054067;28;19916;-81
2023/05/26 02:03:50;;;;;;;;;;;;;;;;;;5060814;28;20034;-82
2023/05/26 02:06:36;;;;;;;;;;;;;;;;;;5061508;28;19913;-82
2023/05/26 02:09:23;;;;;;;;;;;;;;;;;;5045900;28;20455;-81
2023/05/26 02:12:09;;;;;;;;;;;;;;;;;;5039339;28;19916;-81
2023/05/26 02:14:56;;;;;;;;;;;;;;;;;;5035245;28;19921;-81
2023/05/26 02:17:42;;;;;;;;;;;;;;;;;;5038329;28;20437;-82
2023/05/26 02:20:29;;;;;;;;;;;;;;;;;;5052036;28;19916;-82
2023/05/26 02:23:15;;;;;;;;;;;;;;;;;;5046248;28;19925;-80
2023/05/26 02:26:02;;;;;;;;;;;;;;;;;;5032062;28;20376;-82
2023/05/26 02:28:50;;;;;;;;;;;;;;;;;;5040737;28;19917;-83
2023/05/26 02:31:37;;;;;;;;;;;;;;;;;;5053299;28;19960;-82
2023/05/26 02:34:23;;;;;;;;;;;;;;;;;;5035885;28;19925;-83
2023/05/26 02:37:10;;;;;;;;;;;;;;;;;;5040574;28;20302;-81
2023/05/26 02:39:56;;;;;;;;;;;;;;;;;;5053204;28;19923;-82
2023/05/26 02:42:43;;;;;;;;;;;;;;;;;;5061939;28;19931;-82
2023/05/26 02:45:29;;;;;;;;;;;;;;;;;;5063179;28;19917;-82
2023/05/26 02:48:16;;;;;;;;;;;;;;;;;;5050914;28;20015;-84
2023/05/26 02:51:02;;;;;;;;;;;;;;;;;;5049923;28;19932;-81
2023/05/26 02:53:49;;;;;;;;;;;;;;;;;;5045450;28;20280;-82
2023/05/26 02:56:35;;;;;;;;;;;;;;;;;;5059979;28;19947;-82
2023/05/26 02:59:22;;;;;;;;;;;;;;;;;;5046599;28;19917;-82
2023/05/26 03:02:08;;;;;;;;;;;;;;;;;;5039852;28;19924;-82
2023/05/26 03:04:55;;;;;;;;;;;;;;;;;;5051684;28;20501;-82
2023/05/26 03:07:41;;;;;;;;;;;;;;;;;;5045309;28;20285;-83
2023/05/26 03:10:28;;;;;;;;;;;;;;;;;;5038017;28;20372;-83
2023/05/26 03:13:14;;;;;;;;;;;;;;;;;;5055088;28;19924;-87
2023/05/26 03:16:01;;;;;;;;;;;;;;;;;;5049429;28;19933;-86
2023/05/26 03:18:47;;;;;;;;;;;;;;;;;;5042747;28;19928;-88
2023/05/26 03:21:35;;;;;;;;;;;;;;;;;;5036678;28;20733;-87
2023/05/26 03:24:21;;;;;;;;;;;;;;;;;;5050034;28;20664;-86
2023/05/26 03:27:08;;;;;;;;;;;;;;;;;;5050038;28;19917;-87
2023/05/26 03:29:54;;;;;;;;;;;;;;;;;;5062435;28;19920;-88
2023/05/26 03:32:41;;;;;;;;;;;;;;;;;;5063314;28;20502;-85
2023/05/26 03:35:27;;;;;;;;;;;;;;;;;;5046763;28;19928;-84
2023/05/26 03:38:14;;;;;;;;;;;;;;;;;;5057392;28;19920;-84
2023/05/26 03:41:00;;;;;;;;;;;;;;;;;;5059155;28;19920;-85
2023/05/26 03:43:47;;;;;;;;;;;;;;;;;;5059986;28;19920;-84
2023/05/26 03:46:33;;;;;;;;;;;;;;;;;;5044189;28;19924;-85
2023/05/26 03:49:20;;;;;;;;;;;;;;;;;;5059257;28;19924;-84
2023/05/26 03:52:06;;;;;;;;;;;;;;;;;;5061801;28;19924;-87
2023/05/26 03:54:53;;;;;;;;;;;;;;;;;;5051358;28;20394;-87
2023/05/26 03:57:39;;;;;;;;;;;;;;;;;;5059866;28;19929;-85
2023/05/26 04:00:31;;;;;;;;;;;;;;;;;;5043381;28;19916;-87
2023/05/26 04:03:18;;;;;;;;;;;;;;;;;;5049917;28;20392;-86
2023/05/26 04:06:05;;;;;;;;;;;;;;;;;;5060271;28;19931;-86
2023/05/26 04:08:51;;;;;;;;;;;;;;;;;;5042456;28;19924;-85
2023/05/26 04:11:38;;;;;;;;;;;;;;;;;;5041954;28;19923;-86
2023/05/26 04:14:25;;;;;;;;;;;;;;;;;;5061738;28;19921;-86
2023/05/26 04:17:12;;;;;;;;;;;;;;;;;;5052475;28;20292;-86
2023/05/26 04:19:59;;;;;;;;;;;;;;;;;;5039573;28;19917;-87
2023/05/26 04:22:45;;;;;;;;;;;;;;;;;;5053012;28;20497;-87
2023/05/26 04:25:32;;;;;;;;;;;;;;;;;;5056268;28;19924;-85
2023/05/26 04:28:19;;;;;;;;;;;;;;;;;;5049416;28;19921;-86
2023/05/26 04:31:08;;;;;;;;;;;;;;;;;;5041452;28;20431;-87
2023/05/26 04:33:56;;;;;;;;;;;;;;;;;;5052977;28;19925;-86
2023/05/26 04:36:42;;;;;;;;;;;;;;;;;;5047090;28;20393;-87
2023/05/26 04:39:29;;;;;;;;;;;;;;;;;;5064822;28;19954;-87
2023/05/26 04:42:16;;;;;;;;;;;;;;;;;;5048513;28;20007;-86
2023/05/26 04:45:03;;;;;;;;;;;;;;;;;;5042780;28;19921;-87
2023/05/26 04:47:49;;;;;;;;;;;;;;;;;;5050581;28;19917;-87
2023/05/26 04:50:38;;;;;;;;;;;;;;;;;;5051315;28;19947;-87
2023/05/26 04:53:24;;;;;;;;;;;;;;;;;;5044760;28;19917;-87
2023/05/26 04:56:11;;;;;;;;;;;;;;;;;;5060070;28;20055;-91
2023/05/26 04:58:58;;;;;;;;;;;;;;;;;;5042822;28;19923;-89
2023/05/26 05:01:46;;;;;;;;;;;;;;;;;;5051647;28;19996;-89
2023/05/26 05:04:33;;;;;;;;;;;;;;;;;;5054339;28;19917;-90
2023/05/26 05:07:19;;;;;;;;;;;;;;;;;;5060820;28;19916;-89
2023/05/26 05:10:06;;;;;;;;;;;;;;;;;;5041644;28;19920;-88
2023/05/26 05:12:53;;;;;;;;;;;;;;;;;;5050838;28;19916;-89
2023/05/26 05:15:39;;;;;;;;;;;;;;;;;;5058501;28;19921;-88
2023/05/26 05:18:25;;;;;;;;;;;;;;;;;;5050937;28;19932;-89
2023/05/26 05:21:12;;;;;;;;;;;;;;;;;;5037564;28;19928;-89
2023/05/26 05:23:58;;;;;;;;;;;;;;;;;;5038329;28;19920;-90
2023/05/26 05:26:45;;;;;;;;;;;;;;;;;;5046499;28;19927;-89
2023/05/26 05:29:31;;;;;;;;;;;;;;;;;;5057918;28;20323;-91
2023/05/26 05:32:18;;;;;;;;;;;;;;;;;;5051823;28;19921;-87
2023/05/26 05:35:04;;;;;;;;;;;;;;;;;;5042615;28;19931;-86
2023/05/26 05:37:51;;;;;;;;;;;;;;;;;;5040422;28;19932;-86
2023/05/26 05:40:37;;;;;;;;;;;;;;;;;;5055553;28;19932;-91
2023/05/26 05:43:24;;;;;;;;;;;;;;;;;;5039425;28;19956;-88
2023/05/26 05:46:10;;;;;;;;;;;;;;;;;;5040750;28;19921;-90
2023/05/26 05:48:57;;;;;;;;;;;;;;;;;;5038740;28;19921;-88
2023/05/26 05:51:43;;;;;;;;;;;;;;;;;;5060934;28;19928;-86
2023/05/26 05:54:30;;;;;;;;;;;;;;;;;;5047817;28;19920;-81
2023/05/26 05:57:16;;;;;;;;;;;;;;;;;;5038390;28;19975;-81
2023/05/26 06:00:03;;;;;;;;;;;;;;;;;;5037353;28;19925;-79
2023/05/26 06:02:50;;;;;;;;;;;;;;;;;;5041721;28;19921;-81
2023/05/26 06:05:36;;;;;;;;;;;;;;;;;;5056029;28;19927;-80
2023/05/26 06:08:23;;;;;;;;;;;;;;;;;;5051621;28;19928;-80
2023/05/26 06:11:09;;;;;;;;;;;;;;;;;;5044612;28;19917;-80
2023/05/26 06:13:56;;;;;;;;;;;;;;;;;;5049243;28;20384;-80
2023/05/26 06:16:42;;;;;;;;;;;;;;;;;;5035692;28;19943;-80
2023/05/26 06:19:28;;;;;;;;;;;;;;;;;;5033243;28;19916;-81
2023/05/26 06:22:15;;;;;;;;;;;;;;;;;;5037881;28;20003;-81
2023/05/26 06:25:01;;;;;;;;;;;;;;;;;;5052492;28;19935;-80
2023/05/26 06:27:48;;;;;;;;;;;;;;;;;;5037456;28;19921;-81
2023/05/26 06:30:35;;;;;;;;;;;;;;;;;;5043228;28;19921;-81
2023/05/26 06:33:21;;;;;;;;;;;;;;;;;;5038099;28;19931;-79
2023/05/26 06:36:07;;;;;;;;;;;;;;;;;;5034384;28;19931;-79
2023/05/26 06:38:54;;;;;;;;;;;;;;;;;;5041181;28;19925;-79
2023/05/26 06:41:40;;;;;;;;;;;;;;;;;;5047835;28;19921;-79
2023/05/26 06:44:27;;;;;;;;;;;;;;;;;;5040030;28;20554;-81
2023/05/26 06:47:13;;;;;;;;;;;;;;;;;;5040803;28;19917;-82
2023/05/26 06:50:00;;;;;;;;;;;;;;;;;;5064531;28;20647;-82
2023/05/26 06:52:46;;;;;;;;;;;;;;;;;;5052988;28;19917;-82
2023/05/26 06:55:33;;;;;;;;;;;;;;;;;;5058091;28;19942;-82
2023/05/26 06:58:20;;;;;;;;;;;;;;;;;;5060810;28;19939;-81
2023/05/26 07:01:06;;;;;;;;;;;;;;;;;;5044091;28;19928;-82
2023/05/26 07:03:53;;;;;;;;;;;;;;;;;;5047302;28;19927;-83
2023/05/26 07:06:39;;;;;;;;;;;;;;;;;;5050556;28;19920;-83
2023/05/26 07:09:26;;;;;;;;;;;;;;;;;;5037602;28;19924;-83
2023/05/26 07:12:12;;;;;;;;;;;;;;;;;;5045179;28;20293;-83
2023/05/26 07:14:59;;;;;;;;;;;;;;;;;;5043461;28;20383;-83
2023/05/26 07:17:45;;;;;;;;;;;;;;;;;;5048667;28;19939;-83
2023/05/26 07:20:32;;;;;;;;;;;;;;;;;;5055069;28;19923;-83
2023/05/26 07:23:18;;;;;;;;;;;;;;;;;;5044654;28;19921;-83
2023/05/26 07:26:05;;;;;;;;;;;;;;;;;;5042355;28;20387;-82
2023/05/26 07:28:51;;;;;;;;;;;;;;;;;;5059307;28;19924;-83
2023/05/26 07:31:38;;;;;;;;;;;;;;;;;;5061203;28;20494;-77
2023/05/26 07:34:24;;;;;;;;;;;;;;;;;;5037327;28;19927;-78
2023/05/26 07:37:11;;;;;;;;;;;;;;;;;;5044039;28;19929;-76
2023/05/26 07:39:58;;;;;;;;;;;;;;;;;;5048191;28;19916;-77
2023/05/26 07:42:44;;;;;;;;;;;;;;;;;;5048819;28;19924;-77
2023/05/26 07:45:31;;;;;;;;;;;;;;;;;;5036197;28;19928;-77
2023/05/26 07:48:17;;;;;;;;;;;;;;;;;;5037570;28;20292;-76
2023/05/26 07:51:04;;;;;;;;;;;;;;;;;;5059651;28;19939;-76
2023/05/26 07:53:50;;;;;;;;;;;;;;;;;;5059880;28;19959;-77
2023/05/26 07:56:37;;;;;;;;;;;;;;;;;;5044966;28;20399;-76
2023/05/26 07:59:23;;;;;;;;;;;;;;;;;;5040832;28;19935;-76
2023/05/26 08:02:13;;;;;;;;;;;;;;;;;;5046099;28;19921;-76
2023/05/26 08:04:59;;;;;;;;;;;;;;;;;;5044230;28;19929;-76
2023/05/26 08:07:46;;;;;;;;;;;;;;;;;;5035960;28;19920;-77
2023/05/26 08:10:32;;;;;;;;;;;;;;;;;;5024743;28;20347;-77
2023/05/26 08:13:19;;;;;;;;;;;;;;;;;;5043268;28;19928;-77
2023/05/26 08:16:05;;;;;;;;;;;;;;;;;;5029285;28;19921;-77
2023/05/26 08:18:51;;;;;;;;;;;;;;;;;;5033354;28;19927;-76
2023/05/26 08:21:38;;;;;;;;;;;;;;;;;;5035651;28;19916;-75
2023/05/26 08:24:25;;;;;;;;;;;;;;;;;;5041196;28;20282;-76
2023/05/26 08:27:12;;;;;;;;;;;;;;;;;;5041860;28;21185;-77
2023/05/26 08:29:58;;;;;;;;;;;;;;;;;;5039631;28;19931;-77
2023/05/26 08:32:45;;;;;;;;;;;;;;;;;;5041075;28;20391;-75
2023/05/26 08:35:31;;;;;;;;;;;;;;;;;;5041565;28;19925;-75
2023/05/26 08:38:18;;;;;;;;;;;;;;;;;;5043392;28;19929;-75
2023/05/26 08:41:04;;;;;;;;;;;;;;;;;;5058670;28;20638;-75
2023/05/26 08:43:51;;;;;;;;;;;;;;;;;;5042538;28;19916;-77
2023/05/26 08:46:38;;;;;;;;;;;;;;;;;;5062293;28;19926;-76
2023/05/26 08:49:24;;;;;;;;;;;;;;;;;;5037270;28;19921;-77
2023/05/26 08:52:11;;;;;;;;;;;;;;;;;;5050373;28;19921;-76
2023/05/26 08:54:57;;;;;;;;;;;;;;;;;;5047722;28;19921;-77
2023/05/26 08:57:44;;;;;;;;;;;;;;;;;;5040661;28;19928;-75
2023/05/26 09:00:32;;;;;;;;;;;;;;;;;;5039705;28;19933;-76
2023/05/26 09:03:19;;;;;;;;;;;;;;;;;;5039917;28;19924;-75
2023/05/26 09:06:05;;;;;;;;;;;;;;;;;;5059212;28;20386;-75
2023/05/26 09:08:52;;;;;;;;;;;;;;;;;;5050734;28;19931;-75
2023/05/26 09:11:39;;;;;;;;;;;;;;;;;;5042455;28;20164;-76
2023/05/26 09:14:25;;;;;;;;;;;;;;;;;;5038321;28;19932;-76
2023/05/26 09:17:12;;;;;;;;;;;;;;;;;;5046614;28;19928;-76
2023/05/26 09:19:58;;;;;;;;;;;;;;;;;;5049142;28;19924;-77
2023/05/26 09:22:45;;;;;;;;;;;;;;;;;;5061273;28;20292;-76
2023/05/26 09:25:32;;;;;;;;;;;;;;;;;;5053827;28;19920;-76
2023/05/26 09:28:20;;;;;;;;;;;;;;;;;;5042555;28;19947;-76
2023/05/26 09:31:06;;;;;;;;;;;;;;;;;;5042198;28;19921;-79
2023/05/26 09:33:53;;;;;;;;;;;;;;;;;;5042868;28;19917;-76
2023/05/26 09:36:39;;;;;;;;;;;;;;;;;;5041126;28;19928;-77
2023/05/26 09:39:26;;;;;;;;;;;;;;;;;;5039460;28;20885;-76
2023/05/26 09:42:12;;;;;;;;;;;;;;;;;;5034015;28;19921;-76
2023/05/26 09:44:59;;;;;;;;;;;;;;;;;;5042306;28;19928;-77
2023/05/26 09:47:45;;;;;;;;;;;;;;;;;;5038495;28;19925;-76
2023/05/26 09:50:32;;;;;;;;;;;;;;;;;;5042953;28;19917;-75
2023/05/26 09:53:18;;;;;;;;;;;;;;;;;;5053350;28;19924;-75
2023/05/26 09:56:05;;;;;;;;;;;;;;;;;;5055892;28;19920;-77
2023/05/26 09:58:51;;;;;;;;;;;;;;;;;;5036906;28;19931;-76
2023/05/26 10:01:38;;;;;;;;;;;;;;;;;;5040776;28;19921;-75
2023/05/26 10:04:24;;;;;;;;;;;;;;;;;;5041148;28;19913;-76
2023/05/26 10:07:11;;;;;;;;;;;;;;;;;;5057979;28;19917;-76
2023/05/26 10:09:57;;;;;;;;;;;;;;;;;;5059518;28;19940;-78
2023/05/26 10:12:44;;;;;;;;;;;;;;;;;;5036902;28;20376;-77
2023/05/26 10:15:30;;;;;;;;;;;;;;;;;;5039998;28;19917;-77
2023/05/26 10:18:17;;;;;;;;;;;;;;;;;;5036230;28;19933;-77
2023/05/26 10:21:03;;;;;;;;;;;;;;;;;;5054225;28;19916;-76
2023/05/26 10:23:50;;;;;;;;;;;;;;;;;;5057025;28;20276;-77
2023/05/26 10:26:36;;;;;;;;;;;;;;;;;;5054914;28;20356;-77
2023/05/26 10:29:23;;;;;;;;;;;;;;;;;;5062090;28;19920;-74
2023/05/26 10:32:09;;;;;;;;;;;;;;;;;;5041622;28;20427;-76
2023/05/26 10:34:56;;;;;;;;;;;;;;;;;;5038727;28;19921;-76
2023/05/26 10:37:42;;;;;;;;;;;;;;;;;;5038323;28;20442;-77
2023/05/26 10:40:29;;;;;;;;;;;;;;;;;;5055915;28;19950;-77
2023/05/26 10:43:15;;;;;;;;;;;;;;;;;;5039094;28;19925;-76
2023/05/26 10:46:02;;;;;;;;;;;;;;;;;;5037662;28;19955;-77
2023/05/26 10:48:48;;;;;;;;;;;;;;;;;;5057967;28;20534;-77
2023/05/26 10:51:36;;;;;;;;;;;;;;;;;;5050510;28;19921;-76
2023/05/26 10:54:24;;;;;;;;;;;;;;;;;;5052983;28;19954;-76
2023/05/26 10:57:11;;;;;;;;;;;;;;;;;;5042319;28;19928;-76
2023/05/26 10:59:57;;;;;;;;;;;;;;;;;;5050062;28;19925;-75
2023/05/26 11:02:44;;;;;;;;;;;;;;;;;;5054502;28;19916;-75
2023/05/26 11:05:31;;;;;;;;;;;;;;;;;;5038987;28;19913;-76
2023/05/26 11:08:17;;;;;;;;;;;;;;;;;;5034576;28;19920;-76
2023/05/26 12:23:28;;;;;;;;;;;;;;;;;;5954232;23;19928;-79
2023/05/26 12:26:15;;;;;;;;;;;;;;;;;;4977369;28;19960;-79
2023/05/26 12:29:01;;;;;;;;;;;;;;;;;;4977898;28;19926;-80
2023/05/26 12:31:48;;;;;;;;;;;;;;;;;;4981948;28;19926;-79
2023/05/26 12:34:35;;;;;;;;;;;;;;;;;;4981412;28;19918;-79
2023/05/26 12:37:21;;;;;;;;;;;;;;;;;;4980006;28;20384;-79
2023/05/26 12:40:08;;;;;;;;;;;;;;;;;;4984212;28;19952;-80
2023/05/26 12:42:55;;;;;;;;;;;;;;;;;;4983484;28;19922;-79
2023/05/26 12:45:41;;;;;;;;;;;;;;;;;;4985194;28;19940;-79
2023/05/26 12:48:28;;;;;;;;;;;;;;;;;;4984122;28;19921;-78
2023/05/26 12:51:16;;;;;;;;;;;;;;;;;;4983136;28;19925;-79
2023/05/26 12:54:02;;;;;;;;;;;;;;;;;;4982073;28;19944;-80
2023/05/26 12:56:49;;;;;;;;;;;;;;;;;;4977905;28;19918;-81
2023/05/26 12:59:36;;;;;;;;;;;;;;;;;;4984047;28;19920;-81
2023/05/26 13:02:23;;;;;;;;;;;;;;;;;;4961691;28;19922;-81
2023/05/26 13:05:10;;;;;;;;;;;;;;;;;;4962410;28;19914;-79
2023/05/26 13:07:56;;;;;;;;;;;;;;;;;;4965018;28;19928;-80
2023/05/26 13:10:44;;;;;;;;;;;;;;;;;;4965385;28;19915;-82
2023/05/26 13:13:31;;;;;;;;;;;;;;;;;;4958390;28;19914;-80
2023/05/26 13:16:17;;;;;;;;;;;;;;;;;;4954007;28;19994;-82
2023/05/26 13:19:04;;;;;;;;;;;;;;;;;;4965438;28;20455;-81
2023/05/26 13:21:51;;;;;;;;;;;;;;;;;;4963170;28;19926;-81
2023/05/26 13:24:37;;;;;;;;;;;;;;;;;;4945658;28;19971;-81
2023/05/26 13:27:23;;;;;;;;;;;;;;;;;;4942939;28;20286;-81
2023/05/26 13:30:12;;;;;;;;;;;;;;;;;;4935104;28;19923;-81
2023/05/26 13:32:58;;;;;;;;;;;;;;;;;;4928364;28;19918;-81
2023/05/26 13:35:45;;;;;;;;;;;;;;;;;;4946627;28;20724;-81
2023/05/26 13:38:31;;;;;;;;;;;;;;;;;;4952853;28;19934;-81
2023/05/26 13:41:19;;;;;;;;;;;;;;;;;;4946335;28;20292;-81
2023/05/26 13:44:05;;;;;;;;;;;;;;;;;;4952683;28;20041;-81
2023/05/26 13:46:52;;;;;;;;;;;;;;;;;;4936190;29;19937;-81
2023/05/26 13:49:38;;;;;;;;;;;;;;;;;;4932989;28;20405;-84
2023/05/26 13:52:25;;;;;;;;;;;;;;;;;;4961287;28;20032;-81
2023/05/26 13:55:11;;;;;;;;;;;;;;;;;;4941649;28;20597;-80
2023/05/26 13:57:58;;;;;;;;;;;;;;;;;;4938618;28;19923;-80
2023/05/26 14:00:44;;;;;;;;;;;;;;;;;;4940217;28;19925;-80
2023/05/26 14:03:31;;;;;;;;;;;;;;;;;;4959348;28;19924;-80
2023/05/26 14:06:17;;;;;;;;;;;;;;;;;;4959289;28;20281;-80
2023/05/26 14:09:04;;;;;;;;;;;;;;;;;;4961258;28;19918;-80
2023/05/26 14:11:50;;;;;;;;;;;;;;;;;;4964285;28;19918;-81
2023/05/26 14:14:37;;;;;;;;;;;;;;;;;;4958462;28;19925;-81
2023/05/26 14:17:23;;;;;;;;;;;;;;;;;;4957311;28;19938;-80
2023/05/26 14:20:10;;;;;;;;;;;;;;;;;;4960483;28;19929;-80
2023/05/26 14:22:56;;;;;;;;;;;;;;;;;;4945031;28;19947;-81
2023/05/26 14:25:43;;;;;;;;;;;;;;;;;;4952236;28;19937;-80
2023/05/26 14:28:30;;;;;;;;;;;;;;;;;;4959252;28;19937;-81
2023/05/26 14:31:17;;;;;;;;;;;;;;;;;;4956597;28;19918;-81
2023/05/26 14:34:03;;;;;;;;;;;;;;;;;;4958852;28;19918;-82
2023/05/26 14:36:50;;;;;;;;;;;;;;;;;;4962917;28;19945;-81
2023/05/26 14:39:36;;;;;;;;;;;;;;;;;;4958025;28;19922;-80
2023/05/26 14:42:23;;;;;;;;;;;;;;;;;;4956819;28;20670;-80
2023/05/26 14:45:09;;;;;;;;;;;;;;;;;;4956801;28;19922;-79
2023/05/26 14:47:56;;;;;;;;;;;;;;;;;;4959663;28;19918;-80
2023/05/26 14:50:42;;;;;;;;;;;;;;;;;;4957510;28;19933;-81
2023/05/26 14:53:29;;;;;;;;;;;;;;;;;;4962705;28;19918;-81
2023/05/26 14:56:15;;;;;;;;;;;;;;;;;;4960016;28;19918;-81
2023/05/26 14:59:02;;;;;;;;;;;;;;;;;;4960167;28;19926;-80
2023/05/26 15:01:48;;;;;;;;;;;;;;;;;;4964519;28;20412;-80
2023/05/26 15:04:35;;;;;;;;;;;;;;;;;;4952654;28;19918;-80
2023/05/26 15:07:21;;;;;;;;;;;;;;;;;;4964759;28;19956;-80
2023/05/26 15:10:08;;;;;;;;;;;;;;;;;;4962309;28;19922;-80
2023/05/26 15:12:54;;;;;;;;;;;;;;;;;;4955922;28;19957;-81
2023/05/26 15:15:41;;;;;;;;;;;;;;;;;;4967098;28;19922;-81
2023/05/26 15:18:27;;;;;;;;;;;;;;;;;;4961723;28;19937;-81
2023/05/26 15:21:14;;;;;;;;;;;;;;;;;;4957389;28;19921;-81
2023/05/26 15:24:00;;;;;;;;;;;;;;;;;;4960058;28;19968;-80
2023/05/26 15:26:47;;;;;;;;;;;;;;;;;;4961058;28;19930;-80
2023/05/26 15:29:33;;;;;;;;;;;;;;;;;;4934098;28;19918;-80
2023/05/26 15:32:20;;;;;;;;;;;;;;;;;;4961188;28;20236;-79
2023/05/26 15:35:06;;;;;;;;;;;;;;;;;;4960779;28;19940;-79
2023/05/26 15:37:53;;;;;;;;;;;;;;;;;;4972607;28;19926;-80
2023/05/26 15:40:40;;;;;;;;;;;;;;;;;;4964071;28;20268;-79
2023/05/26 15:43:26;;;;;;;;;;;;;;;;;;4959064;28;20378;-80
2023/05/26 15:46:13;;;;;;;;;;;;;;;;;;4958570;28;19918;-80
2023/05/26 15:48:59;;;;;;;;;;;;;;;;;;4954092;28;19929;-81
2023/05/26 15:51:46;;;;;;;;;;;;;;;;;;4962000;28;19919;-81
2023/05/26 15:54:32;;;;;;;;;;;;;;;;;;4962203;28;19921;-77
2023/05/26 15:57:19;;;;;;;;;;;;;;;;;;4963719;28;19926;-81
2023/05/26 16:00:07;;;;;;;;;;;;;;;;;;4963053;28;19933;-80
2023/05/26 16:02:53;;;;;;;;;;;;;;;;;;4955605;28;19922;-80
2023/05/26 16:05:40;;;;;;;;;;;;;;;;;;4965125;28;19925;-80
2023/05/26 16:08:26;;;;;;;;;;;;;;;;;;4960162;28;19940;-80
2023/05/26 16:11:13;;;;;;;;;;;;;;;;;;4956471;28;19933;-80
2023/05/26 16:13:59;;;;;;;;;;;;;;;;;;4960317;28;19922;-80
2023/05/26 16:16:46;;;;;;;;;;;;;;;;;;4958003;28;19921;-81
2023/05/26 16:19:32;;;;;;;;;;;;;;;;;;4954051;28;19937;-80
2023/05/26 16:22:19;;;;;;;;;;;;;;;;;;4958517;28;20476;-80
2023/05/26 16:25:05;;;;;;;;;;;;;;;;;;4961706;28;19937;-80
2023/05/26 16:27:52;;;;;;;;;;;;;;;;;;4957574;28;20452;-81
2023/05/26 16:30:38;;;;;;;;;;;;;;;;;;4963616;28;20400;-79
2023/05/26 16:33:25;;;;;;;;;;;;;;;;;;4970345;28;19922;-81
2023/05/26 16:36:11;;;;;;;;;;;;;;;;;;4957807;28;19919;-81
2023/05/26 16:38:58;;;;;;;;;;;;;;;;;;4955622;28;19930;-80
2023/05/26 16:41:47;;;;;;;;;;;;;;;;;;4965026;28;19925;-82
2023/05/26 16:44:34;;;;;;;;;;;;;;;;;;4965720;28;20374;-82
2023/05/26 16:47:20;;;;;;;;;;;;;;;;;;4965973;28;20011;-83
2023/05/26 16:50:07;;;;;;;;;;;;;;;;;;4964361;28;19918;-82
2023/05/26 16:52:53;;;;;;;;;;;;;;;;;;4960422;28;19925;-82
2023/05/26 16:55:40;;;;;;;;;;;;;;;;;;4957337;28;19928;-82
2023/05/26 16:58:27;;;;;;;;;;;;;;;;;;4959984;28;19926;-83
2023/05/26 17:01:13;;;;;;;;;;;;;;;;;;4967591;28;19922;-82
2023/05/26 17:04:00;;;;;;;;;;;;;;;;;;4968267;28;20309;-84
2023/05/26 17:06:46;;;;;;;;;;;;;;;;;;4945999;28;19915;-83
2023/05/26 17:09:33;;;;;;;;;;;;;;;;;;4945102;28;19922;-82
2023/05/26 17:12:19;;;;;;;;;;;;;;;;;;4946943;28;19976;-82
2023/05/26 17:15:06;;;;;;;;;;;;;;;;;;4954468;28;19945;-83
2023/05/26 17:17:53;;;;;;;;;;;;;;;;;;4953009;28;20412;-82
2023/05/26 17:20:39;;;;;;;;;;;;;;;;;;4961409;28;19926;-83
2023/05/26 17:23:26;;;;;;;;;;;;;;;;;;4963669;28;19929;-83
2023/05/26 17:26:14;;;;;;;;;;;;;;;;;;4940228;28;19931;-83
2023/05/26 17:29:00;;;;;;;;;;;;;;;;;;4956894;28;19929;-82
2023/05/26 17:31:48;;;;;;;;;;;;;;;;;;4959590;28;19921;-82
2023/05/26 17:34:35;;;;;;;;;;;;;;;;;;4947718;28;19929;-82
2023/05/26 17:37:21;;;;;;;;;;;;;;;;;;4963373;28;19918;-82
2023/05/26 17:40:08;;;;;;;;;;;;;;;;;;4951200;28;19925;-81
2023/05/26 17:42:54;;;;;;;;;;;;;;;;;;4964313;28;19926;-80
2023/05/26 17:45:41;;;;;;;;;;;;;;;;;;4963324;28;19918;-81
2023/05/26 17:48:27;;;;;;;;;;;;;;;;;;4954742;28;19918;-80
2023/05/26 17:51:14;;;;;;;;;;;;;;;;;;4955468;28;20364;-82
2023/05/26 17:54:00;;;;;;;;;;;;;;;;;;4959361;28;19929;-81
2023/05/26 17:56:47;;;;;;;;;;;;;;;;;;4954942;28;19918;-82
2023/05/26 17:59:33;;;;;;;;;;;;;;;;;;4961990;28;19934;-82
2023/05/26 18:02:20;;;;;;;;;;;;;;;;;;4959675;28;19918;-82
2023/05/26 18:05:06;;;;;;;;;;;;;;;;;;4957269;28;19918;-81
2023/05/26 18:07:53;;;;;;;;;;;;;;;;;;4954244;28;19933;-81
2023/05/26 18:10:39;;;;;;;;;;;;;;;;;;4963643;28;19944;-81
2023/05/26 18:13:26;;;;;;;;;;;;;;;;;;4961882;28;19941;-82
2023/05/26 18:16:13;;;;;;;;;;;;;;;;;;4961880;28;20289;-82
2023/05/26 18:18:59;;;;;;;;;;;;;;;;;;4953468;28;19933;-81
2023/05/26 18:21:46;;;;;;;;;;;;;;;;;;4959571;28;20376;-83
2023/05/26 18:24:32;;;;;;;;;;;;;;;;;;4957489;28;19934;-83
2023/05/26 18:27:20;;;;;;;;;;;;;;;;;;4957325;28;19923;-83
2023/05/26 18:30:07;;;;;;;;;;;;;;;;;;4955888;28;19925;-81
2023/05/26 18:32:53;;;;;;;;;;;;;;;;;;4959796;28;19922;-83
2023/05/26 18:35:40;;;;;;;;;;;;;;;;;;4962601;28;19922;-82
2023/05/26 18:38:26;;;;;;;;;;;;;;;;;;4961044;28;19931;-82
2023/05/26 18:41:12;;;;;;;;;;;;;;;;;;4958198;28;20395;-82
2023/05/26 18:43:59;;;;;;;;;;;;;;;;;;4960637;28;19923;-81
2023/05/26 18:46:45;;;;;;;;;;;;;;;;;;4961624;28;19968;-82
2023/05/26 18:49:32;;;;;;;;;;;;;;;;;;4961717;28;20531;-82
2023/05/26 18:52:19;;;;;;;;;;;;;;;;;;4967936;28;19963;-82
2023/05/26 18:55:05;;;;;;;;;;;;;;;;;;4970406;28;20361;-81
2023/05/26 18:57:51;;;;;;;;;;;;;;;;;;4964139;28;20582;-79
2023/05/26 19:00:38;;;;;;;;;;;;;;;;;;4961865;28;19956;-86
2023/05/26 19:03:26;;;;;;;;;;;;;;;;;;4959168;28;19929;-88
2023/05/26 19:06:12;;;;;;;;;;;;;;;;;;4964204;28;19918;-89
2023/05/26 19:08:59;;;;;;;;;;;;;;;;;;4967589;28;19922;-87
2023/05/26 19:11:45;;;;;;;;;;;;;;;;;;4964408;28;19953;-89
2023/05/26 19:14:32;;;;;;;;;;;;;;;;;;4966982;28;19922;-88
2023/05/26 19:17:18;;;;;;;;;;;;;;;;;;4963199;28;19919;-87
2023/05/26 19:20:05;;;;;;;;;;;;;;;;;;4961858;28;19918;-87
2023/05/26 19:22:51;;;;;;;;;;;;;;;;;;4967189;28;19934;-87
2023/05/26 19:25:38;;;;;;;;;;;;;;;;;;4960635;28;19937;-84
2023/05/26 19:28:24;;;;;;;;;;;;;;;;;;4950307;28;19922;-84
2023/05/26 19:31:11;;;;;;;;;;;;;;;;;;4963303;28;19914;-86
2023/05/26 19:33:57;;;;;;;;;;;;;;;;;;4963130;28;19929;-81
2023/05/26 19:36:44;;;;;;;;;;;;;;;;;;4964937;28;19922;-86
2023/05/26 19:39:30;;;;;;;;;;;;;;;;;;4970718;28;19926;-87
2023/05/26 19:42:17;;;;;;;;;;;;;;;;;;4969286;28;20313;-87
2023/05/26 19:45:03;;;;;;;;;;;;;;;;;;4957400;28;19937;-84
2023/05/26 19:47:50;;;;;;;;;;;;;;;;;;4965130;28;19929;-84
2023/05/26 19:50:36;;;;;;;;;;;;;;;;;;4970032;28;19925;-85
2023/05/26 19:53:24;;;;;;;;;;;;;;;;;;4955791;28;20479;-85
2023/05/26 19:56:11;;;;;;;;;;;;;;;;;;4961799;28;19923;-85
2023/05/26 19:58:57;;;;;;;;;;;;;;;;;;4960304;28;20325;-78
2023/05/26 20:01:44;;;;;;;;;;;;;;;;;;4954752;28;19949;-87
2023/05/26 20:04:30;;;;;;;;;;;;;;;;;;4942964;28;20302;-86
2023/05/26 20:07:17;;;;;;;;;;;;;;;;;;4968751;28;19925;-87
2023/05/26 20:10:03;;;;;;;;;;;;;;;;;;4961101;28;19922;-86